createdAt,value
2023-04-02T00:02:58.208Z,53
2023-04-02T00:08:14.292Z,53
2023-04-02T00:13:31.828Z,53
2023-04-02T00:18:50.372Z,53
2023-04-02T00:24:06.667Z,53
2023-04-02T00:29:22.702Z,52
2023-04-02T00:34:38.856Z,53
2023-04-02T00:39:56.451Z,53
2023-04-02T00:45:13.741Z,52
2023-04-02T00:50:31.175Z,52
2023-04-02T00:55:47.634Z,52
2023-04-02T01:01:05.191Z,52
2023-04-02T01:06:21.093Z,52
2023-04-02T01:11:37.766Z,52
2023-04-02T01:16:54.702Z,52
2023-04-02T01:22:11.767Z,52
2023-04-02T02:09:48.303Z,52
2023-04-02T02:14:59.328Z,52
2023-04-02T02:20:17.125Z,52
2023-04-02T02:25:34.518Z,52
2023-04-02T02:30:49.886Z,52
2023-04-02T02:36:06.819Z,52
2023-04-02T02:41:22.853Z,52
2023-04-02T02:46:40.772Z,52
2023-04-02T02:51:58.374Z,52
2023-04-02T02:57:15.424Z,52
2023-04-02T03:02:32.370Z,52
2023-04-02T03:07:48.919Z,52
2023-04-02T03:32:16.190Z,52
2023-04-02T03:37:25.919Z,52
2023-04-02T03:42:43.326Z,52
2023-04-02T03:48:00.331Z,52
2023-04-02T03:53:17.579Z,52
2023-04-02T03:58:34.386Z,52
2023-04-02T04:03:50.825Z,52
2023-04-02T04:09:07.335Z,52
2023-04-02T04:14:24.127Z,52
2023-04-02T04:19:40.293Z,51
2023-04-02T04:24:57.780Z,51
2023-04-02T04:30:13.896Z,51
2023-04-02T04:35:30.331Z,52
2023-04-02T04:40:46.849Z,52
2023-04-02T04:46:03.297Z,52
2023-04-02T04:51:19.359Z,51
2023-04-02T04:56:37.245Z,51
2023-04-02T05:01:53.736Z,51
2023-04-02T05:07:10.374Z,51
2023-04-02T05:12:27.867Z,51
2023-04-02T05:17:44.057Z,51
2023-04-02T05:23:00.603Z,51
2023-04-02T05:28:16.764Z,51
2023-04-02T05:33:33.570Z,51
2023-04-02T05:38:49.930Z,51
2023-04-02T05:44:06.059Z,51
2023-04-02T05:49:22.847Z,51
2023-04-02T05:54:41.729Z,51
2023-04-02T05:59:58.209Z,51
2023-04-02T06:05:14.264Z,51
2023-04-02T06:10:31.462Z,51
2023-04-02T06:15:48.615Z,51
2023-04-02T06:21:04.950Z,51
2023-04-02T06:26:21.208Z,51
2023-04-02T07:08:44.312Z,50
2023-04-02T07:13:54.068Z,50
2023-04-02T07:19:11.676Z,50
2023-04-02T07:24:27.805Z,50
2023-04-02T07:29:43.374Z,50
2023-04-02T07:35:01.030Z,50
2023-04-02T07:40:16.785Z,50
2023-04-02T07:45:34.464Z,50
2023-04-02T07:50:51.180Z,50
2023-04-02T07:56:08.128Z,49
2023-04-02T08:01:24.301Z,49
2023-04-02T08:06:41.420Z,49
2023-04-02T08:11:58.972Z,49
2023-04-02T08:17:15.659Z,49
2023-04-02T08:22:33.087Z,49
2023-04-02T08:27:50.526Z,49
2023-04-02T08:33:07.695Z,49
2023-04-02T08:38:23.542Z,48
2023-04-02T08:43:41.050Z,48
2023-04-02T08:48:58.538Z,48
2023-04-02T08:54:16.217Z,48
2023-04-02T08:59:32.788Z,48
2023-04-02T09:04:48.987Z,48
2023-04-02T09:10:06.388Z,48
2023-04-02T09:15:22.747Z,47
2023-04-02T09:20:39.813Z,47
2023-04-02T09:26:05.124Z,47
2023-04-02T09:31:13.569Z,47
2023-04-02T09:36:29.399Z,47
2023-04-02T09:42:05.658Z,46
2023-04-02T09:47:02.068Z,47
2023-04-02T09:52:18.862Z,46
2023-04-02T09:57:35.004Z,46
2023-04-02T10:02:52.130Z,46
2023-04-02T10:50:29.905Z,45
2023-04-02T10:55:39.848Z,45
2023-04-02T11:00:55.811Z,45
2023-04-02T11:06:12.258Z,45
2023-04-02T11:11:29.415Z,44
2023-04-02T11:16:46.634Z,44
2023-04-02T11:22:07.123Z,44
2023-04-02T11:27:19.345Z,44
2023-04-02T11:32:37.014Z,44
2023-04-02T11:37:54.394Z,43
2023-04-02T11:43:11.661Z,43
2023-04-02T11:48:27.700Z,43
2023-04-02T11:53:44.613Z,43
2023-04-02T11:59:02.708Z,43
2023-04-02T12:04:19.497Z,43
2023-04-02T12:09:36.946Z,43
2023-04-02T12:14:52.739Z,43
2023-04-02T12:20:09.882Z,43
2023-04-02T12:25:25.969Z,42
2023-04-02T12:30:43.871Z,42
2023-04-02T12:36:01.120Z,42
2023-04-02T12:41:19.487Z,42
2023-04-02T12:46:36.876Z,42
2023-04-02T12:51:53.887Z,42
2023-04-02T12:57:10.728Z,41
2023-04-02T13:02:27.487Z,41
2023-04-02T13:07:43.663Z,41
2023-04-02T13:13:01.122Z,40
2023-04-02T13:18:17.106Z,40
2023-04-02T13:23:34.050Z,40
2023-04-02T13:28:50.135Z,40
2023-04-02T13:34:06.376Z,39
2023-04-02T13:39:37.467Z,39
2023-04-02T13:44:54.534Z,39
2023-04-02T13:50:10.854Z,39
2023-04-02T13:55:27.566Z,39
2023-04-02T14:00:43.683Z,38
2023-04-02T14:05:59.817Z,38
2023-04-02T14:11:16.015Z,40
2023-04-02T14:16:33.673Z,38
2023-04-02T14:21:49.647Z,36
2023-04-02T14:27:05.736Z,37
2023-04-02T14:32:23.739Z,35
2023-04-02T14:37:40.620Z,33
2023-04-02T14:42:56.796Z,33
2023-04-02T14:48:13.099Z,33
2023-04-02T14:53:30.536Z,33
2023-04-02T14:58:47.803Z,33
2023-04-02T15:04:04.480Z,34
2023-04-02T15:09:22.208Z,36
2023-04-02T15:14:38.937Z,35
2023-04-02T15:19:55.042Z,33
2023-04-02T15:25:11.178Z,32
2023-04-02T15:30:27.610Z,32
2023-04-02T15:35:46.155Z,31
2023-04-02T15:41:03.504Z,32
2023-04-02T15:46:21.658Z,32
2023-04-02T16:28:41.110Z,30
2023-04-02T16:33:51.756Z,30
2023-04-02T16:39:08.983Z,30
2023-04-02T16:44:25.916Z,30
2023-04-02T16:49:44.504Z,30
2023-04-02T16:54:59.341Z,30
2023-04-02T17:00:15.674Z,30
2023-04-02T17:05:31.014Z,31
2023-04-02T17:10:47.974Z,31
2023-04-02T17:16:03.486Z,32
2023-04-02T17:21:20.933Z,33
2023-04-02T17:26:36.948Z,32
2023-04-02T17:31:55.817Z,32
2023-04-02T17:37:12.663Z,31
2023-04-02T17:42:28.966Z,31
2023-04-02T17:47:45.710Z,31
2023-04-02T17:53:02.889Z,31
2023-04-02T17:58:19.208Z,31
2023-04-02T18:03:35.466Z,31
2023-04-02T18:08:51.341Z,31
2023-04-02T18:14:07.657Z,31
2023-04-02T18:19:23.187Z,32
2023-04-02T18:24:39.818Z,32
2023-04-02T18:29:59.337Z,33
2023-04-02T18:35:16.767Z,33
2023-04-02T18:40:32.950Z,33
2023-04-02T18:45:50.474Z,33
2023-04-02T18:51:07.299Z,34
2023-04-02T18:56:23.427Z,34
2023-04-02T19:01:47.090Z,34
2023-04-02T19:06:56.771Z,34
2023-04-02T19:12:14.206Z,34
2023-04-02T19:17:30.791Z,35
2023-04-02T19:22:46.634Z,35
2023-04-02T20:05:07.367Z,36
2023-04-02T20:10:17.094Z,36
2023-04-02T20:15:34.806Z,36
2023-04-02T20:20:51.020Z,36
2023-04-02T20:26:08.363Z,36
2023-04-02T20:31:24.670Z,37
2023-04-02T20:36:39.986Z,37
2023-04-02T20:41:56.626Z,37
2023-04-02T20:47:12.302Z,37
2023-04-02T20:52:29.019Z,37
2023-04-02T20:57:45.113Z,37
2023-04-02T21:03:01.521Z,37
2023-04-02T21:08:17.643Z,37
2023-04-02T21:13:33.657Z,38
2023-04-02T21:18:50.387Z,38
2023-04-02T21:24:09.267Z,38
2023-04-02T21:29:27.343Z,38
2023-04-02T21:34:43.513Z,38
2023-04-02T21:39:59.009Z,38
2023-04-02T21:45:15.974Z,39
2023-04-02T21:50:33.310Z,39
2023-04-02T21:55:50.531Z,39
2023-04-02T22:01:27.067Z,39
2023-04-02T22:06:24.193Z,39
2023-04-02T22:11:40.597Z,39
2023-04-02T22:16:57.993Z,40
2023-04-02T22:22:16.617Z,40
2023-04-02T22:27:33.430Z,40
2023-04-02T22:32:51.028Z,40
2023-04-02T22:38:06.364Z,40
2023-04-02T22:43:23.656Z,40
2023-04-02T22:48:41.134Z,40
2023-04-02T22:53:57.474Z,40
2023-04-02T22:59:13.498Z,40
2023-04-02T23:36:18.253Z,41
2023-04-02T23:41:27.983Z,41
2023-04-02T23:46:44.203Z,41
2023-04-02T23:52:00.788Z,41
2023-04-02T23:57:18.336Z,41
